Terminal Aerodrome Forecast
Issued by NWS

Home | Current Version | Previous Version | Text Only | Print | Product List | Glossary On
Versions: 1 2 3 4 5 6 7 8 9 10 11 12 13 14 15 16 17 18 19
568
FTUS43 KILX 230534
TAFBMI
TAF
KBMI 230534Z 2306/2406 22006KT P6SM VCSH BKN060
      TEMPO 2306/2310 -RA OVC080
     FM231100 20006KT P6SM VCSH BKN050
     FM232000 19006KT 5SM -SHRA VCTS OVC020CB
     FM232300 03005KT P6SM -SHRA OVC040
     FM240300 36005KT 5SM -SHRA OVC025=

USA.gov is the U.S. government's official web portal to all federal, state and local government web resources and services.